Time;durP1;ratioP1;P1;durP2;ratioP2;P2;SDS_P1;SDS_P2;PMS_P1;PMS_P2;Temp;Humidity;BMP_temperature;BMP_pressure;BME280_temperature;BME280_humidity;BME280_pressure;Samples;Min_cycle;Max_cycle;Signal;HPM_P1;HPM_P2
2021/12/28 00:00:47;;;;;;;2.95;1.52;;;;;;;7.33;100.00;95354.88;5112977;28;20411;-64
2021/12/28 00:03:13;;;;;;;4.75;2.10;;;;;;;7.21;100.00;95352.38;5113632;28;20388;-64
2021/12/28 00:05:39;;;;;;;4.05;1.65;;;;;;;7.20;100.00;95342.97;5113845;28;20460;-64
2021/12/28 00:08:04;;;;;;;5.17;1.90;;;;;;;7.29;100.00;95346.78;5113480;28;20472;-64
2021/12/28 00:10:29;;;;;;;4.20;2.00;;;;;;;7.24;100.00;95349.31;5095795;28;20504;-63
2021/12/28 00:12:55;;;;;;;5.77;1.80;;;;;;;7.17;100.00;95347.91;5113865;28;20840;-63
2021/12/28 00:18:04;;;;;;;3.13;1.67;;;;;;;7.27;100.00;95346.22;5113828;28;20906;-63
2021/12/28 00:20:35;;;;;;;5.22;1.70;;;;;;;7.35;100.00;95332.00;5113603;28;20388;-64
2021/12/28 00:23:04;;;;;;;5.40;1.77;;;;;;;7.31;100.00;95343.91;5113934;28;20388;-64
2021/12/28 00:25:29;;;;;;;5.30;1.90;;;;;;;7.20;100.00;95345.59;5097338;28;20865;-63
2021/12/28 00:27:55;;;;;;;6.38;2.30;;;;;;;7.30;100.00;95344.97;5113575;28;20387;-63
2021/12/28 00:30:21;;;;;;;5.20;2.20;;;;;;;7.17;100.00;95356.50;5113259;28;20416;-64
2021/12/28 00:32:52;;;;;;;5.20;2.03;;;;;;;7.25;100.00;95355.28;5113405;28;20428;-64
2021/12/28 00:35:17;;;;;;;5.37;2.10;;;;;;;7.28;100.00;95347.00;5113353;28;20404;-63
2021/12/28 00:37:42;;;;;;;7.43;2.30;;;;;;;7.31;100.00;95344.69;5113164;28;20417;-64
2021/12/28 00:40:09;;;;;;;6.73;1.97;;;;;;;7.33;100.00;95331.44;5113305;28;20423;-64
2021/12/28 00:42:34;;;;;;;5.07;1.90;;;;;;;7.34;100.00;95333.81;5095442;28;20388;-63
2021/12/28 00:44:59;;;;;;;6.07;2.13;;;;;;;7.40;100.00;95334.66;5113500;28;20395;-66
2021/12/28 00:47:25;;;;;;;6.67;2.33;;;;;;;7.32;100.00;95330.63;5094339;28;21123;-64
2021/12/28 00:49:50;;;;;;;5.40;2.20;;;;;;;7.21;100.00;95335.97;5112631;28;20411;-63
2021/12/28 00:52:16;;;;;;;5.53;1.95;;;;;;;7.14;100.00;95332.72;5113136;28;20392;-66
2021/12/28 00:54:41;;;;;;;4.47;2.10;;;;;;;7.16;100.00;95328.09;5113087;28;20419;-64
2021/12/28 00:57:06;;;;;;;4.47;1.77;;;;;;;7.39;100.00;95327.88;5113164;28;20430;-64
2021/12/28 00:59:32;;;;;;;4.70;2.00;;;;;;;7.41;100.00;95326.56;5112702;28;20860;-64
2021/12/28 01:01:58;;;;;;;3.42;1.83;;;;;;;7.18;100.00;95334.63;5112729;28;20484;-63
2021/12/28 01:04:24;;;;;;;7.60;2.10;;;;;;;7.26;100.00;95343.84;5113166;28;20581;-63
2021/12/28 01:06:50;;;;;;;3.50;1.88;;;;;;;7.17;100.00;95334.88;5093975;28;20488;-64
2021/12/28 01:09:16;;;;;;;6.70;2.30;;;;;;;7.02;100.00;95332.88;5112446;28;20423;-64
2021/12/28 01:11:42;;;;;;;4.73;2.10;;;;;;;7.07;100.00;95328.50;5112873;28;20790;-64
2021/12/28 01:14:07;;;;;;;5.03;2.00;;;;;;;7.09;100.00;95326.44;5112539;28;20795;-64
2021/12/28 01:16:33;;;;;;;7.13;2.03;;;;;;;7.29;100.00;95314.72;5113121;28;20392;-63
2021/12/28 01:18:58;;;;;;;4.67;1.87;;;;;;;7.31;100.00;95302.22;5112877;28;20388;-64
2021/12/28 01:21:24;;;;;;;5.77;2.07;;;;;;;7.26;100.00;95310.75;5112676;28;20389;-64
2021/12/28 01:23:49;;;;;;;4.40;2.27;;;;;;;7.24;100.00;95309.44;5112726;28;20855;-64
2021/12/28 01:26:14;;;;;;;3.30;2.13;;;;;;;7.09;100.00;95313.41;5112396;28;20740;-64
2021/12/28 01:28:40;;;;;;;4.60;2.03;;;;;;;7.11;100.00;95300.16;5112400;28;20388;-63
2021/12/28 01:31:05;;;;;;;3.40;1.93;;;;;;;6.87;100.00;95294.34;5112293;28;20392;-64
2021/12/28 01:33:31;;;;;;;2.87;2.13;;;;;;;6.77;100.00;95291.63;5112077;28;20480;-64
2021/12/28 01:35:58;;;;;;;3.60;2.10;;;;;;;6.62;100.00;95297.41;5112392;28;20457;-64
2021/12/28 01:38:24;;;;;;;4.85;2.28;;;;;;;6.66;100.00;95290.69;5112076;28;20411;-64
2021/12/28 01:40:49;;;;;;;4.28;2.13;;;;;;;6.72;100.00;95290.75;5112513;28;20481;-63
2021/12/28 01:43:18;;;;;;;9.55;2.40;;;;;;;6.79;100.00;95286.19;5112092;28;20475;-63
2021/12/28 01:45:52;;;;;;;4.32;2.30;;;;;;;6.76;100.00;95282.22;5112591;28;20399;-63
2021/12/28 01:48:28;;;;;;;3.92;2.10;;;;;;;6.79;100.00;95271.34;5112631;28;20427;-63
2021/12/28 01:50:58;;;;;;;2.40;2.20;;;;;;;6.75;100.00;95279.84;5112128;28;20408;-64
2021/12/28 01:53:25;;;;;;;3.42;2.20;;;;;;;6.81;100.00;95271.88;5112160;28;20471;-63
2021/12/28 01:55:55;;;;;;;3.47;2.20;;;;;;;6.55;100.00;95275.94;5112432;28;20506;-63
2021/12/28 01:58:21;;;;;;;3.55;2.50;;;;;;;6.87;100.00;95270.13;5112890;28;20497;-63
2021/12/28 02:00:49;;;;;;;3.25;2.30;;;;;;;6.81;100.00;95266.66;5111302;28;20907;-64
2021/12/28 02:03:17;;;;;;;4.22;2.33;;;;;;;6.85;100.00;95257.38;5111769;28;20818;-64
2021/12/28 02:05:43;;;;;;;4.20;2.63;;;;;;;6.69;100.00;95255.56;5111856;28;20417;-64
2021/12/28 02:08:12;;;;;;;3.50;2.20;;;;;;;6.66;100.00;95248.25;5111934;28;20392;-63
2021/12/28 02:10:39;;;;;;;3.22;2.40;;;;;;;6.54;100.00;95252.75;5112016;28;20933;-64
2021/12/28 02:13:06;;;;;;;3.70;2.13;;;;;;;6.62;100.00;95245.34;5111239;28;20391;-64
2021/12/28 02:15:32;;;;;;;4.23;2.10;;;;;;;6.71;100.00;95230.09;5112086;28;20388;-64
2021/12/28 02:17:58;;;;;;;5.32;2.25;;;;;;;6.67;100.00;95224.59;5111765;28;20942;-65
2021/12/28 02:20:24;;;;;;;6.32;2.55;;;;;;;6.69;100.00;95214.69;5110667;28;20420;-65
2021/12/28 02:22:49;;;;;;;6.28;2.20;;;;;;;6.71;100.00;95214.47;5111955;28;20391;-63
2021/12/28 02:25:16;;;;;;;5.68;2.10;;;;;;;6.55;100.00;95212.69;5112054;28;20540;-63
2021/12/28 02:27:42;;;;;;;2.87;2.13;;;;;;;6.57;100.00;95216.63;5112015;28;20400;-64
2021/12/28 02:30:15;;;;;;;2.67;2.30;;;;;;;6.41;100.00;95217.44;5111428;28;20408;-67
2021/12/28 02:32:41;;;;;;;4.20;1.93;;;;;;;6.48;100.00;95202.44;5111652;28;20390;-64
2021/12/28 02:35:10;;;;;;;5.05;2.25;;;;;;;6.40;100.00;95218.47;5111340;28;20393;-63
2021/12/28 02:37:36;;;;;;;4.90;2.55;;;;;;;6.47;100.00;95213.09;5111829;28;20409;-63
2021/12/28 02:40:03;;;;;;;4.30;2.47;;;;;;;6.56;100.00;95191.63;5111504;28;20388;-63
2021/12/28 02:42:28;;;;;;;5.03;2.50;;;;;;;6.53;100.00;95193.91;5111598;28;20384;-63
2021/12/28 02:44:59;;;;;;;3.85;2.13;;;;;;;6.37;100.00;95184.31;5111229;28;20487;-65
2021/12/28 02:47:24;;;;;;;6.63;2.33;;;;;;;6.35;100.00;95191.59;5093654;28;20448;-62
2021/12/28 02:49:50;;;;;;;6.97;2.40;;;;;;;6.39;100.00;95183.06;5111302;28;20404;-62
2021/12/28 02:52:16;;;;;;;5.75;2.30;;;;;;;6.32;100.00;95179.06;5111472;28;20400;-62
2021/12/28 02:54:42;;;;;;;5.43;2.20;;;;;;;6.39;100.00;95174.47;5111515;28;20400;-62
2021/12/28 02:57:07;;;;;;;2.80;2.13;;;;;;;6.45;100.00;95168.31;5093196;28;20399;-63
2021/12/28 02:59:33;;;;;;;7.33;2.30;;;;;;;6.23;100.00;95169.06;5111248;28;20380;-64
2021/12/28 03:01:58;;;;;;;7.75;2.40;;;;;;;6.27;100.00;95151.16;5111195;28;20385;-62
2021/12/28 03:04:27;;;;;;;6.40;2.80;;;;;;;6.38;100.00;95159.88;5111927;28;20525;-62
2021/12/28 03:06:53;;;;;;;6.65;2.40;;;;;;;6.38;100.00;95152.88;5110627;28;20421;-62
2021/12/28 03:09:20;;;;;;;8.18;2.55;;;;;;;6.50;100.00;95142.34;5111531;28;20462;-62
2021/12/28 03:11:46;;;;;;;9.20;2.75;;;;;;;6.41;100.00;95139.38;5112926;28;20391;-62
2021/12/28 03:14:11;;;;;;;6.57;2.53;;;;;;;6.54;100.00;95143.44;5115097;28;20761;-62
2021/12/28 03:16:38;;;;;;;6.77;2.40;;;;;;;6.44;100.00;95135.50;5114864;28;20385;-62
2021/12/28 03:19:04;;;;;;;6.18;2.25;;;;;;;6.52;100.00;95137.72;5115123;28;20395;-62
2021/12/28 03:21:30;;;;;;;6.78;2.40;;;;;;;6.60;100.00;95139.88;5096838;28;20415;-62
2021/12/28 03:23:57;;;;;;;7.83;2.30;;;;;;;6.68;100.00;95129.84;5114951;28;20872;-62
2021/12/28 03:26:24;;;;;;;5.13;2.17;;;;;;;6.69;100.00;95131.38;5114255;28;20381;-62
2021/12/28 03:28:50;;;;;;;8.90;2.42;;;;;;;6.74;100.00;95133.28;5114363;28;20395;-62
2021/12/28 03:31:18;;;;;;;5.72;2.28;;;;;;;6.81;100.00;95130.47;5096658;28;20459;-62
2021/12/28 03:33:45;;;;;;;6.00;2.25;;;;;;;6.72;100.00;95131.94;5114684;28;20388;-62
2021/12/28 03:36:12;;;;;;;5.10;2.27;;;;;;;6.56;100.00;95120.56;5096454;28;20392;-62
2021/12/28 03:38:39;;;;;;;4.68;2.00;;;;;;;6.67;100.00;95123.06;5114756;28;20922;-61
2021/12/28 03:41:09;;;;;;;4.80;2.08;;;;;;;6.72;100.00;95117.13;5114498;28;20392;-62
2021/12/28 03:43:36;;;;;;;5.83;2.10;;;;;;;6.69;100.00;95123.59;5114056;28;20388;-62
2021/12/28 03:46:02;;;;;;;9.45;2.42;;;;;;;6.51;100.00;95116.09;5114931;28;20423;-62
2021/12/28 03:48:27;;;;;;;5.93;2.40;;;;;;;6.61;100.00;95116.22;5114300;28;20416;-62
2021/12/28 03:50:53;;;;;;;7.53;2.20;;;;;;;6.63;100.00;95110.78;5113751;28;20409;-62
2021/12/28 03:53:18;;;;;;;5.40;2.10;;;;;;;6.70;100.00;95100.94;5114123;28;20476;-62
2021/12/28 03:55:44;;;;;;;4.37;2.10;;;;;;;6.90;100.00;95100.38;5114269;28;20868;-63
2021/12/28 03:58:09;;;;;;;6.95;2.40;;;;;;;6.92;99.13;95098.31;5114134;28;20399;-62
2021/12/28 04:00:44;;;;;;;6.60;2.20;;;;;;;6.91;99.66;95101.97;5113736;28;20422;-64
2021/12/28 04:03:09;;;;;;;4.45;2.00;;;;;;;6.77;99.57;95101.53;5114097;28;20380;-62
2021/12/28 04:05:35;;;;;;;7.77;2.30;;;;;;;6.59;100.00;95092.22;5114300;28;20414;-62
2021/12/28 04:08:01;;;;;;;6.90;2.10;;;;;;;6.94;99.63;95091.03;5113637;28;20706;-62
2021/12/28 04:10:37;;;;;;;5.75;2.35;;;;;;;7.09;98.78;95099.00;5114069;28;20405;-62
2021/12/28 04:13:03;;;;;;;6.45;2.53;;;;;;;6.96;98.70;95097.59;5113729;28;20753;-62
2021/12/28 04:15:28;;;;;;;5.22;2.20;;;;;;;6.94;98.67;95101.47;5113707;28;20389;-63
2021/12/28 04:17:54;;;;;;;6.10;2.30;;;;;;;6.99;98.31;95101.50;5113472;28;20390;-62
2021/12/28 04:20:21;;;;;;;6.32;2.20;;;;;;;7.11;97.85;95091.75;5113670;28;20402;-62
2021/12/28 04:22:47;;;;;;;5.32;2.30;;;;;;;7.19;97.71;95088.69;5112973;28;20670;-63
2021/12/28 04:25:15;;;;;;;6.80;2.40;;;;;;;6.76;99.33;95086.94;5113771;28;20447;-63
2021/12/28 04:27:41;;;;;;;6.50;2.70;;;;;;;6.82;99.99;95091.19;5113164;28;20893;-64
2021/12/28 04:30:09;;;;;;;4.95;2.17;;;;;;;6.99;98.68;95091.88;5113029;28;20408;-63
2021/12/28 04:32:35;;;;;;;5.45;2.20;;;;;;;6.98;98.88;95092.13;5113386;28;20384;-63
2021/12/28 04:35:00;;;;;;;3.03;2.10;;;;;;;7.06;98.47;95089.09;5113499;28;20440;-63
2021/12/28 04:37:26;;;;;;;4.05;2.20;;;;;;;7.10;98.01;95085.75;5112697;28;20416;-62
2021/12/28 04:39:51;;;;;;;6.07;2.20;;;;;;;6.95;98.88;95084.81;5113055;28;20402;-63
2021/12/28 04:42:17;;;;;;;3.90;2.22;;;;;;;7.04;98.78;95081.50;5113210;28;20868;-63
2021/12/28 04:44:42;;;;;;;3.83;2.27;;;;;;;7.06;98.79;95070.84;5113094;28;20416;-63
2021/12/28 04:47:08;;;;;;;4.30;2.30;;;;;;;7.03;99.76;95068.72;5095126;28;20385;-62
2021/12/28 04:49:35;;;;;;;2.33;1.90;;;;;;;6.99;99.90;95076.25;5112672;28;20517;-63
2021/12/28 04:52:02;;;;;;;5.20;2.00;;;;;;;6.97;100.00;95067.09;5113443;28;20467;-63
2021/12/28 04:54:28;;;;;;;5.35;2.15;;;;;;;6.81;100.00;95063.56;5113080;28;20392;-62
2021/12/28 04:56:53;;;;;;;3.25;2.00;;;;;;;6.92;100.00;95070.44;5112763;28;20384;-63
2021/12/28 04:59:19;;;;;;;4.77;2.20;;;;;;;6.94;100.00;95063.19;5112619;28;20418;-63
2021/12/28 05:01:45;;;;;;;4.17;2.23;;;;;;;6.95;100.00;95056.16;5112848;28;20380;-63
2021/12/28 05:04:11;;;;;;;4.67;2.40;;;;;;;6.96;100.00;95055.13;5112604;28;20479;-63
2021/12/28 05:06:37;;;;;;;4.80;2.40;;;;;;;7.00;100.00;95051.78;5113234;28;20391;-62
2021/12/28 05:09:06;;;;;;;2.25;2.00;;;;;;;6.85;100.00;95051.66;5112888;28;20742;-63
2021/12/28 05:11:33;;;;;;;3.67;2.03;;;;;;;6.88;100.00;95035.53;5112477;28;20399;-63
2021/12/28 05:13:59;;;;;;;2.65;2.00;;;;;;;6.78;100.00;95043.25;5112918;28;20396;-63
2021/12/28 05:16:28;;;;;;;3.92;2.10;;;;;;;7.02;100.00;95041.91;5112586;28;20482;-62
2021/12/28 05:18:54;;;;;;;4.72;2.10;;;;;;;6.91;100.00;95037.63;5112852;28;20444;-62
2021/12/28 05:21:19;;;;;;;3.20;2.30;;;;;;;7.00;100.00;95035.38;5112090;28;20729;-64
2021/12/28 05:23:45;;;;;;;3.17;2.40;;;;;;;6.91;100.00;95021.25;5112259;28;20385;-62
2021/12/28 05:26:10;;;;;;;3.17;2.33;;;;;;;7.00;100.00;95022.34;5112569;28;20388;-63
2021/12/28 05:28:36;;;;;;;3.15;2.13;;;;;;;6.80;100.00;95025.53;5112564;28;20391;-62
2021/12/28 05:31:02;;;;;;;4.22;2.40;;;;;;;6.98;100.00;95027.81;5111961;28;20533;-63
2021/12/28 05:33:27;;;;;;;4.40;2.07;;;;;;;6.94;100.00;95024.13;5112327;28;20800;-62
2021/12/28 05:35:52;;;;;;;4.47;2.10;;;;;;;6.88;100.00;95019.13;5111380;28;20701;-62
2021/12/28 05:38:18;;;;;;;3.50;2.00;;;;;;;6.97;100.00;95026.22;5112636;28;20431;-62
2021/12/28 05:40:43;;;;;;;4.73;2.30;;;;;;;6.96;100.00;95023.88;5112684;28;20391;-63
2021/12/28 05:43:09;;;;;;;4.03;2.70;;;;;;;6.84;100.00;95018.81;5112045;28;20952;-63
2021/12/28 05:45:34;;;;;;;3.80;2.40;;;;;;;7.05;100.00;95012.75;5112805;28;20380;-63
2021/12/28 05:47:59;;;;;;;3.97;2.70;;;;;;;6.96;100.00;95013.47;5112415;28;20384;-62
2021/12/28 05:50:25;;;;;;;5.20;2.40;;;;;;;6.96;100.00;95008.25;5111702;28;20473;-63
2021/12/28 05:52:50;;;;;;;4.20;2.30;;;;;;;7.21;100.00;95005.84;5112262;28;20387;-63
2021/12/28 05:55:16;;;;;;;3.80;2.30;;;;;;;7.12;100.00;95003.97;5095283;28;20761;-63
2021/12/28 05:57:41;;;;;;;3.20;2.10;;;;;;;7.15;100.00;95000.84;5094106;28;20429;-62
2021/12/28 06:00:09;;;;;;;2.90;2.17;;;;;;;7.18;100.00;95005.56;5112050;28;20752;-63
2021/12/28 06:02:36;;;;;;;3.13;2.10;;;;;;;7.29;100.00;95005.41;5110787;28;20388;-63
2021/12/28 06:05:03;;;;;;;4.75;2.50;;;;;;;7.22;100.00;95002.22;5111987;28;20753;-63
2021/12/28 06:07:29;;;;;;;3.80;2.20;;;;;;;7.29;100.00;95004.63;5111064;28;20449;-63
2021/12/28 06:09:55;;;;;;;3.27;2.43;;;;;;;7.39;100.00;95002.09;5111433;28;20420;-63
2021/12/28 06:12:21;;;;;;;3.85;2.30;;;;;;;7.28;100.00;95008.25;5112140;28;20392;-63
2021/12/28 06:14:46;;;;;;;2.50;2.30;;;;;;;7.32;100.00;95004.09;5093673;28;20396;-63
2021/12/28 06:17:12;;;;;;;2.70;2.30;;;;;;;7.35;100.00;94999.19;5112082;28;20392;-63
2021/12/28 06:19:37;;;;;;;2.87;2.43;;;;;;;7.19;100.00;94992.28;5093672;28;20968;-63
2021/12/28 06:22:03;;;;;;;3.10;2.33;;;;;;;7.22;100.00;94997.00;5111429;28;20463;-62
2021/12/28 06:24:29;;;;;;;2.47;2.30;;;;;;;7.28;100.00;94987.41;5111381;28;20384;-63
2021/12/28 06:26:54;;;;;;;2.33;2.13;;;;;;;7.34;100.00;94989.81;5093244;28;20553;-63
2021/12/28 06:29:20;;;;;;;2.20;2.00;;;;;;;7.40;100.00;94990.63;5111577;28;20408;-63
2021/12/28 06:31:45;;;;;;;3.30;2.27;;;;;;;7.37;100.00;94998.94;5111720;28;20380;-62
2021/12/28 06:34:11;;;;;;;2.25;2.10;;;;;;;7.41;100.00;94989.59;5111003;28;20406;-62
2021/12/28 06:36:37;;;;;;;3.45;2.35;;;;;;;7.36;100.00;94986.94;5111865;28;20392;-62
2021/12/28 06:39:03;;;;;;;2.40;2.20;;;;;;;7.41;100.00;94990.34;5111175;28;20409;-63
2021/12/28 06:41:29;;;;;;;2.50;2.30;;;;;;;7.40;100.00;94993.22;5111285;28;20384;-63
2021/12/28 06:43:54;;;;;;;2.90;2.20;;;;;;;7.52;100.00;94991.22;5111367;28;20407;-63
2021/12/28 06:46:20;;;;;;;3.25;1.90;;;;;;;7.50;100.00;94994.09;5112022;28;20917;-63
2021/12/28 06:48:45;;;;;;;2.43;1.90;;;;;;;7.50;100.00;94988.88;5115213;28;20779;-63
2021/12/28 06:51:11;;;;;;;2.67;2.10;;;;;;;7.52;100.00;94984.16;5115300;28;20840;-62
2021/12/28 06:53:37;;;;;;;2.70;2.00;;;;;;;7.53;100.00;94992.78;5113982;28;20392;-63
2021/12/28 06:56:03;;;;;;;3.23;1.90;;;;;;;7.64;100.00;94998.84;5115462;28;20407;-63
2021/12/28 06:58:29;;;;;;;2.53;2.33;;;;;;;7.64;100.00;94998.84;5115254;28;20384;-63
2021/12/28 07:00:54;;;;;;;2.30;2.10;;;;;;;7.68;100.00;94998.09;5113988;28;20392;-63
2021/12/28 07:03:20;;;;;;;2.90;2.03;;;;;;;7.69;100.00;95004.13;5114846;28;20384;-63
2021/12/28 07:05:45;;;;;;;1.83;1.73;;;;;;;7.77;99.85;94996.59;5115087;28;20395;-62
2021/12/28 07:08:11;;;;;;;1.60;1.60;;;;;;;7.66;100.00;95000.16;5115128;28;20416;-63
2021/12/28 07:10:36;;;;;;;1.20;1.20;;;;;;;7.65;100.00;95006.41;5114388;28;20404;-63
2021/12/28 07:13:02;;;;;;;1.30;1.30;;;;;;;7.67;100.00;94998.34;5114930;28;20811;-63
2021/12/28 07:15:27;;;;;;;1.67;1.58;;;;;;;7.61;100.00;95007.19;5114733;28;20392;-63
2021/12/28 07:17:53;;;;;;;2.53;1.50;;;;;;;7.69;99.83;95001.50;5115142;28;20464;-63
2021/12/28 07:20:18;;;;;;;1.60;1.50;;;;;;;7.71;100.00;95000.19;5114693;28;20388;-63
2021/12/28 07:22:44;;;;;;;1.67;1.40;;;;;;;7.78;99.02;95005.19;5114525;28;20404;-62
2021/12/28 07:25:10;;;;;;;1.60;1.57;;;;;;;7.62;99.75;95004.31;5114478;28;20860;-63
2021/12/28 07:27:37;;;;;;;1.40;1.40;;;;;;;7.70;99.89;95005.66;5114781;28;20388;-62
2021/12/28 07:30:06;;;;;;;1.40;1.30;;;;;;;7.91;99.02;94999.53;5114119;28;20416;-62
2021/12/28 07:32:31;;;;;;;1.40;1.30;;;;;;;7.91;98.80;94995.09;5114206;28;20868;-63
2021/12/28 07:34:57;;;;;;;1.20;1.20;;;;;;;7.81;99.07;94996.84;5114338;28;20480;-63
2021/12/28 07:37:22;;;;;;;2.10;1.17;;;;;;;7.94;97.89;94986.75;5114180;28;20423;-63
2021/12/28 07:39:50;;;;;;;1.30;1.20;;;;;;;7.99;97.79;94986.00;5114126;28;20771;-63
2021/12/28 07:42:16;;;;;;;1.25;1.25;;;;;;;8.00;97.57;94990.19;5114417;28;20388;-62
2021/12/28 07:44:41;;;;;;;1.33;1.33;;;;;;;8.10;97.30;94999.88;5114328;28;20403;-63
2021/12/28 07:47:06;;;;;;;1.30;1.30;;;;;;;8.25;96.19;95003.31;5096123;28;20381;-63
2021/12/28 07:49:32;;;;;;;1.40;1.30;;;;;;;8.32;96.33;94997.91;5114163;28;20404;-62
2021/12/28 07:51:57;;;;;;;1.60;1.53;;;;;;;8.19;96.11;95003.59;5113872;28;20857;-62
2021/12/28 07:54:23;;;;;;;1.63;1.52;;;;;;;8.25;96.28;94998.09;5096117;28;20407;-62
2021/12/28 07:56:48;;;;;;;1.30;1.20;;;;;;;8.43;95.79;95012.56;5114473;28;20461;-63
2021/12/28 07:59:14;;;;;;;1.10;1.10;;;;;;;8.58;94.97;95007.38;5112922;28;20798;-65
2021/12/28 08:01:40;;;;;;;1.10;1.10;;;;;;;8.74;93.27;95013.44;5113548;28;20426;-64
2021/12/28 08:04:05;;;;;;;1.00;1.00;;;;;;;8.65;93.13;95020.19;5114093;28;20399;-63
2021/12/28 08:06:31;;;;;;;1.30;1.20;;;;;;;8.62;93.90;95015.50;5113651;28;20384;-63
2021/12/28 08:08:56;;;;;;;1.10;1.10;;;;;;;8.58;94.15;95017.81;5114100;28;20441;-63
2021/12/28 08:11:23;;;;;;;1.30;1.30;;;;;;;8.55;94.63;95020.16;5114003;28;20412;-63
2021/12/28 08:13:49;;;;;;;1.20;1.20;;;;;;;8.46;95.69;95021.72;5114052;28;20392;-64
2021/12/28 08:16:14;;;;;;;1.40;1.40;;;;;;;8.53;96.04;95028.25;5113453;28;20881;-64
2021/12/28 08:18:40;;;;;;;1.30;1.30;;;;;;;8.54;96.49;95027.22;5113878;28;20404;-63
2021/12/28 08:21:05;;;;;;;1.50;1.40;;;;;;;8.75;95.07;95022.81;5095568;28;20396;-63
2021/12/28 08:23:31;;;;;;;1.30;1.30;;;;;;;8.79;95.10;95016.06;5113946;28;20404;-63
2021/12/28 08:25:56;;;;;;;1.30;1.30;;;;;;;8.60;95.82;95018.34;5094695;28;20393;-63
2021/12/28 08:28:22;;;;;;;1.20;1.20;;;;;;;8.56;96.68;95021.75;5113386;28;20809;-63
2021/12/28 08:30:47;;;;;;;1.20;1.20;;;;;;;8.76;95.93;95027.00;5113591;28;20412;-63
2021/12/28 08:33:13;;;;;;;1.30;1.20;;;;;;;8.66;96.18;95026.97;5113154;28;20385;-63
2021/12/28 08:35:39;;;;;;;1.10;1.10;;;;;;;8.72;95.99;95028.56;5113129;28;20419;-63
2021/12/28 08:38:10;;;;;;;1.17;1.17;;;;;;;8.76;96.03;95027.00;5113675;28;20416;-63
2021/12/28 08:40:37;;;;;;;1.30;1.20;;;;;;;8.83;95.75;95026.75;5113553;28;20811;-62
2021/12/28 08:43:02;;;;;;;0.93;0.80;;;;;;;10.19;100.00;95026.72;5113441;28;20449;-69
2021/12/28 08:45:27;;;;;;;1.10;1.10;;;;;;;10.74;95.46;95033.56;5095041;28;20400;-65
2021/12/28 08:47:53;;;;;;;1.17;1.00;;;;;;;10.68;86.71;95026.00;5113610;28;20426;-63
2021/12/28 08:50:20;;;;;;;0.90;0.90;;;;;;;9.80;90.00;95033.59;5095069;28;20404;-63
2021/12/28 08:52:46;;;;;;;0.93;0.93;;;;;;;9.70;91.19;95030.97;5113325;28;20721;-63
2021/12/28 08:55:12;;;;;;;0.90;0.90;;;;;;;9.73;91.19;95031.25;5112814;28;20395;-67
2021/12/28 08:57:38;;;;;;;0.70;0.70;;;;;;;9.60;91.39;95044.84;5113125;28;20407;-64
2021/12/28 09:00:13;;;;;;;0.80;0.80;;;;;;;9.48;92.30;95042.50;5112907;28;20385;-63
2021/12/28 09:02:39;;;;;;;1.00;0.90;;;;;;;9.58;92.16;95039.13;5112214;28;20441;-63
2021/12/28 09:05:05;;;;;;;0.90;0.90;;;;;;;9.43;92.43;95037.28;5112561;28;20439;-64
2021/12/28 09:07:30;;;;;;;0.90;0.90;;;;;;;9.40;92.34;95042.25;5112393;28;20403;-63
2021/12/28 09:09:55;;;;;;;0.93;0.93;;;;;;;9.22;93.97;95040.94;5112417;28;20484;-65
2021/12/28 09:12:22;;;;;;;0.90;0.90;;;;;;;9.54;92.44;95049.28;5112334;28;20384;-64
2021/12/28 09:14:47;;;;;;;1.00;1.00;;;;;;;9.44;94.04;95051.91;5112658;28;20880;-63
2021/12/28 09:17:14;;;;;;;0.90;0.90;;;;;;;9.46;94.44;95054.28;5112627;28;20381;-63
2021/12/28 09:19:39;;;;;;;0.90;0.90;;;;;;;9.50;93.54;95056.09;5112600;28;20400;-64
2021/12/28 09:22:05;;;;;;;0.97;0.97;;;;;;;9.44;93.92;95054.53;5112419;28;20468;-63
2021/12/28 09:24:31;;;;;;;1.00;1.00;;;;;;;9.72;93.01;95060.28;5112645;28;20464;-66
2021/12/28 09:26:57;;;;;;;1.00;1.00;;;;;;;9.72;93.02;95058.44;5112154;28;20825;-65
2021/12/28 09:29:25;;;;;;;1.02;1.02;;;;;;;9.83;92.25;95057.38;5093794;28;20450;-66
2021/12/28 09:31:52;;;;;;;0.90;0.90;;;;;;;9.84;92.10;95045.88;5100475;28;20457;-65
2021/12/28 09:34:17;;;;;;;1.00;1.00;;;;;;;10.09;91.90;95054.72;5112244;28;20401;-64
2021/12/28 09:36:43;;;;;;;1.20;1.00;;;;;;;10.13;91.48;95058.38;5112041;28;20488;-66
2021/12/28 09:39:08;;;;;;;0.97;0.97;;;;;;;10.18;90.92;95059.19;5112042;28;20428;-68
2021/12/28 09:41:34;;;;;;;0.70;0.70;;;;;;;10.13;91.78;95055.75;5093989;28;20391;-64
2021/12/28 09:44:00;;;;;;;0.97;0.97;;;;;;;10.06;91.60;95063.88;5112486;28;20470;-64
2021/12/28 09:46:25;;;;;;;0.90;0.90;;;;;;;10.03;92.76;95062.56;5094230;28;20399;-63
2021/12/28 09:48:50;;;;;;;0.90;0.90;;;;;;;9.93;93.82;95057.38;5112082;28;20525;-64
2021/12/28 09:51:16;;;;;;;1.00;1.00;;;;;;;10.08;93.21;95056.56;5111334;28;20418;-64
2021/12/28 09:53:43;;;;;;;1.10;1.00;;;;;;;10.05;94.00;95064.94;5112217;28;20914;-64
2021/12/28 09:56:08;;;;;;;1.00;1.00;;;;;;;10.05;93.23;95074.63;5112138;28;21078;-64
2021/12/28 09:58:38;;;;;;;1.03;1.03;;;;;;;10.10;93.40;95072.78;5111633;28;20391;-64
2021/12/28 10:01:06;;;;;;;0.98;0.98;;;;;;;10.25;93.43;95072.00;5113676;27;20402;-65
2021/12/28 10:03:33;;;;;;;0.90;0.90;;;;;;;10.32;92.19;95078.50;5114998;27;20380;-65
2021/12/28 10:05:59;;;;;;;0.98;0.98;;;;;;;10.46;92.12;95081.34;5093318;28;20409;-64
2021/12/28 10:08:25;;;;;;;1.00;1.00;;;;;;;10.55;92.31;95076.34;5109559;28;20853;-64
2021/12/28 10:10:56;;;;;;;1.40;0.95;;;;;;;10.61;91.59;95083.13;5111791;28;20515;-64
2021/12/28 10:13:24;;;;;;;1.00;1.00;;;;;;;10.61;91.55;95075.28;5111755;28;20452;-64
2021/12/28 10:15:52;;;;;;;1.10;1.10;;;;;;;10.67;91.05;95074.19;5111734;28;20465;-63
2021/12/28 10:18:18;;;;;;;1.00;1.00;;;;;;;10.68;91.36;95078.41;5111892;28;20457;-63
2021/12/28 10:20:58;;;;;;;1.08;1.08;;;;;;;10.66;91.62;95078.66;5111708;28;20400;-63
2021/12/28 10:23:27;;;;;;;1.10;1.10;;;;;;;10.87;91.32;95076.72;5115396;28;20412;-64
2021/12/28 10:25:56;;;;;;;1.20;0.95;;;;;;;10.92;90.62;95079.34;5115708;28;20442;-64
2021/12/28 10:28:34;;;;;;;1.00;1.00;;;;;;;10.83;91.06;95081.72;5115547;28;20384;-64
2021/12/28 10:31:08;;;;;;;1.05;1.05;;;;;;;10.52;92.57;95064.56;5115078;28;20408;-64
2021/12/28 10:33:38;;;;;;;0.90;0.90;;;;;;;10.56;93.03;95075.28;5114993;28;20510;-64
2021/12/28 10:36:08;;;;;;;1.02;1.02;;;;;;;10.28;94.55;95069.63;5114689;28;20444;-64
2021/12/28 10:38:36;;;;;;;1.13;1.13;;;;;;;10.34;95.58;95067.78;5113418;28;20423;-65
2021/12/28 10:41:14;;;;;;;1.33;1.25;;;;;;;10.50;95.26;95064.03;5114719;28;20391;-64
2021/12/28 10:43:45;;;;;;;1.10;1.10;;;;;;;10.68;95.32;95066.06;5113978;28;20663;-64
2021/12/28 10:46:29;;;;;;;1.20;1.20;;;;;;;10.99;93.87;95061.44;5115149;28;20392;-64
2021/12/28 10:48:58;;;;;;;1.20;1.10;;;;;;;11.29;92.88;95057.06;5114463;28;20392;-65
2021/12/28 10:51:39;;;;;;;0.95;0.95;;;;;;;11.14;93.85;95063.22;5114193;28;20399;-64
2021/12/28 10:56:34;;;;;;;1.17;1.17;;;;;;;11.08;94.49;95072.94;5096180;28;20487;-63
2021/12/28 10:59:00;;;;;;;1.20;1.20;;;;;;;11.15;94.44;95067.38;5114273;28;20722;-64
2021/12/28 11:01:29;;;;;;;1.00;1.00;;;;;;;11.18;94.04;95066.84;5113402;28;20435;-63
2021/12/28 11:03:57;;;;;;;1.00;1.00;;;;;;;11.17;94.34;95066.06;5114491;28;20875;-62
2021/12/28 11:06:24;;;;;;;1.10;1.10;;;;;;;11.00;95.57;95057.78;5110057;27;20471;-62
2021/12/28 11:08:54;;;;;;;1.20;1.20;;;;;;;10.96;95.50;95054.13;5114374;28;20385;-63
2021/12/28 11:11:22;;;;;;;1.00;1.00;;;;;;;11.14;95.19;95065.84;5112927;28;20416;-62
2021/12/28 11:13:48;;;;;;;1.13;1.13;;;;;;;11.07;95.76;95060.09;5112855;28;20395;-63
2021/12/28 11:16:18;;;;;;;1.25;1.10;;;;;;;11.08;95.24;95054.59;5113949;28;20392;-63
2021/12/28 11:18:46;;;;;;;2.60;1.40;;;;;;;11.07;95.96;95039.91;5113984;28;20396;-64
2021/12/28 11:21:18;;;;;;;1.20;1.20;;;;;;;10.84;96.86;95051.84;5113328;28;20484;-64
2021/12/28 11:23:46;;;;;;;1.40;1.30;;;;;;;11.13;96.11;95048.53;5115112;27;20383;-63
2021/12/28 11:26:20;;;;;;;1.27;1.27;;;;;;;11.17;95.82;95058.19;5112483;28;20419;-63
2021/12/28 11:29:16;;;;;;;1.20;1.20;;;;;;;10.95;96.86;95049.94;5113526;28;20483;-62
2021/12/28 11:31:50;;;;;;;1.30;1.30;;;;;;;11.00;97.31;95042.06;5107907;28;20710;-62
2021/12/28 11:34:25;;;;;;;1.50;1.50;;;;;;;11.07;97.58;95050.41;5095061;28;20560;-63
2021/12/28 11:36:58;;;;;;;1.40;1.30;;;;;;;11.21;96.59;95040.84;5113043;28;20438;-65
2021/12/28 11:39:34;;;;;;;1.38;1.38;;;;;;;11.25;96.19;95033.25;5113559;28;20411;-64